Airfield :
LOGIN :

Register | Disclaimer

   EN    FR    IT 

 










Legend :    VFR   Marginal VFR   IFR   Intensive IFR   Very Intensive IFR
Visi :
Ceiling :
>= 8 km
>= 3000ft
5 to 8 km
1000 to 3000 ft
1500m to 5 km
500 to 1000 ft
800 to 1500m
200 to 500 ft
< 800m
< 200 ft
Symbols :   Thunderstorms  Fog  Heavy snow  Heavy precipitations  Wind > 20 kt
SIGMETs :     Misc.  Thunderstorms  Icing  Turbulence  Mountain Waves  Volcanic Ashes







- Airport Elevation : 1830 ft


EBLB - Butgenbach Elsenborn

CURRENT METAR :
  • 160825Z AUTO 32006KT 0200 FG VV002/// 00/00 Q1008 RED

EXPIRED METARs :
  • 160755Z AUTO 31006KT 0150 -RA VV002/// M00/M00 Q1008 RED
  • 160725Z AUTO 32007KT 0150 FG VV002/// M00/M00 Q1007 RED
  • 160703Z AUTO 31008KT 0300 FG VV002/// M00/M00 Q1006 RED
  • 160655Z AUTO 32008KT 1400 -RA OVC002/// M00/M00 Q1006 AMB
  • 160625Z AUTO 31007KT 5000 -SN OVC003/// M00/M01 Q1006 YLO
  • 160622Z AUTO 31007KT 1400 -SN OVC003/// M00/M00 Q1006 AMB
  • 160616Z AUTO 31008KT 0450 SN OVC004/// M00/M00 Q1006 RED
  • 160603Z AUTO 32006KT 1000 -SN OVC004/// M00/M01 Q1006 AMB
  • 160555Z AUTO 32007KT 2000 -SN OVC004/// M00/M01 Q1005 YLO

Expired Forecast.
No reported NOTAMs for that airfield.



MET'MAP, your aeronautical weather chart ! - Copyright ORBIFLY December 2007 - Disclaimer

ORBIFLY MET'MAP TEAM :

Programming & Development : Alexandra Zaïnal
Concept & Development : Baudouin d'Aumeries
Co-Development & Prog : Marc-Olivier Méhu
Technical & hardware support : Manuel Goepfert

Contact : metmap@orbifly.com




SOURCES & CREDITS :

   NOAA